Time;durP1;ratioP1;P1;durP2;ratioP2;P2;SDS_P1;SDS_P2;PMS_P1;PMS_P2;Temp;Humidity;BMP_temperature;BMP_pressure;BME280_temperature;BME280_humidity;BME280_pressure;Samples;Min_cycle;Max_cycle;Signal;HPM_P1;HPM_P2
2021/12/06 00:00:39;;;;;;;5.93;5.32;;;;;;;;;;5013519;28;20171;-55
2021/12/06 00:03:08;;;;;;;5.00;4.55;;;;;;;;;;5013646;28;20332;-55
2021/12/06 00:05:34;;;;;;;5.60;5.10;;;;;;;;;;5013850;28;20259;-55
2021/12/06 00:08:00;;;;;;;6.03;5.43;;;;;;;;;;5013776;28;20173;-54
2021/12/06 00:10:27;;;;;;;4.93;4.53;;;;;;;;;;5013341;28;20294;-55
2021/12/06 00:12:53;;;;;;;6.57;5.50;;;;;;;;;;5013384;28;20192;-54
2021/12/06 00:15:19;;;;;;;6.25;5.57;;;;;;;;;;5013449;28;20203;-54
2021/12/06 00:17:45;;;;;;;7.55;6.22;;;;;;;;;;5013488;28;20164;-55
2021/12/06 00:20:12;;;;;;;6.80;5.70;;;;;;;;;;5013218;28;20710;-55
2021/12/06 00:22:38;;;;;;;6.18;5.57;;;;;;;;;;5013461;28;20439;-55
2021/12/06 00:25:04;;;;;;;7.05;6.35;;;;;;;;;;5013425;28;20196;-54
2021/12/06 00:27:30;;;;;;;10.60;7.70;;;;;;;;;;5013191;28;20176;-55
2021/12/06 00:29:56;;;;;;;10.07;6.47;;;;;;;;;;5013295;28;20252;-54
2021/12/06 00:32:23;;;;;;;13.88;8.40;;;;;;;;;;5013404;28;20185;-55
2021/12/06 00:34:50;;;;;;;11.60;9.73;;;;;;;;;;5013069;28;20569;-55
2021/12/06 00:39:46;;;;;;;12.20;8.60;;;;;;;;;;5012842;28;20646;-54
2021/12/06 00:42:12;;;;;;;17.80;10.15;;;;;;;;;;5012787;28;20284;-55
2021/12/06 00:44:38;;;;;;;13.10;8.55;;;;;;;;;;5012927;28;20168;-55
2021/12/06 00:47:05;;;;;;;10.07;8.85;;;;;;;;;;5012943;28;20196;-54
2021/12/06 00:49:32;;;;;;;16.58;8.57;;;;;;;;;;5012993;28;20183;-54
2021/12/06 00:51:58;;;;;;;12.48;9.48;;;;;;;;;;5012656;28;20188;-54
2021/12/06 00:54:24;;;;;;;11.60;8.60;;;;;;;;;;5012824;28;20219;-55
2021/12/06 00:56:50;;;;;;;14.63;8.47;;;;;;;;;;5012658;28;20486;-54
2021/12/06 00:59:16;;;;;;;13.75;8.93;;;;;;;;;;5012920;28;20482;-55
2021/12/06 01:01:42;;;;;;;13.00;8.90;;;;;;;;;;5012371;28;20639;-54
2021/12/06 01:04:08;;;;;;;14.27;9.83;;;;;;;;;;5012677;28;20795;-54
2021/12/06 01:06:34;;;;;;;10.27;9.20;;;;;;;;;;5012623;28;20399;-53
2021/12/06 01:09:00;;;;;;;14.03;10.00;;;;;;;;;;5012549;28;20322;-55
2021/12/06 01:11:26;;;;;;;16.40;9.07;;;;;;;;;;5012181;28;20407;-54
2021/12/06 01:13:52;;;;;;;13.50;9.80;;;;;;;;;;5012053;28;20200;-54
2021/12/06 01:16:19;;;;;;;15.90;9.90;;;;;;;;;;5012406;28;20744;-54
2021/12/06 01:18:45;;;;;;;14.80;8.85;;;;;;;;;;5012419;28;20166;-54
2021/12/06 01:23:57;;;;;;;14.60;10.27;;;;;;;;;;5012209;28;20697;-54
2021/12/06 01:32:13;;;;;;;13.32;9.75;;;;;;;;;;4978772;28;20269;-55
2021/12/06 01:40:10;;;;;;;12.88;10.98;;;;;;;;;;5012029;28;20566;-54
2021/12/06 01:42:36;;;;;;;15.10;11.90;;;;;;;;;;5012025;28;20667;-54
2021/12/06 01:45:04;;;;;;;13.88;10.48;;;;;;;;;;5012083;28;20230;-54
2021/12/06 01:47:32;;;;;;;16.65;10.98;;;;;;;;;;5012086;28;20183;-54
2021/12/06 01:50:06;;;;;;;18.30;11.70;;;;;;;;;;5011773;28;20177;-54
2021/12/06 01:52:34;;;;;;;16.10;11.02;;;;;;;;;;5011931;28;20184;-54
2021/12/06 01:55:01;;;;;;;15.38;11.40;;;;;;;;;;5011795;28;20569;-54
2021/12/06 01:57:28;;;;;;;16.80;10.88;;;;;;;;;;5011952;28;20702;-54
2021/12/06 01:59:55;;;;;;;14.43;11.38;;;;;;;;;;5011706;28;20535;-54
2021/12/06 02:02:22;;;;;;;14.23;11.20;;;;;;;;;;5011462;28;20218;-55
2021/12/06 02:04:48;;;;;;;17.67;11.63;;;;;;;;;;5011303;28;20414;-54
2021/12/06 02:07:16;;;;;;;16.73;11.80;;;;;;;;;;5011645;28;20172;-54
2021/12/06 02:09:43;;;;;;;14.85;11.18;;;;;;;;;;5011726;28;20418;-54
2021/12/06 02:12:09;;;;;;;14.75;11.52;;;;;;;;;;5011805;28;20206;-55
2021/12/06 02:17:25;;;;;;;20.42;10.98;;;;;;;;;;5011995;28;20178;-54
2021/12/06 02:20:04;;;;;;;28.10;13.52;;;;;;;;;;5011809;28;20164;-54
2021/12/06 02:22:47;;;;;;;25.25;13.05;;;;;;;;;;5014811;22;20220;-53
2021/12/06 02:25:17;;;;;;;36.22;17.60;;;;;;;;;;4992201;28;20185;-51
2021/12/06 02:27:43;;;;;;;33.35;16.15;;;;;;;;;;4995589;28;20176;-51
2021/12/06 02:30:09;;;;;;;20.38;13.60;;;;;;;;;;4995720;28;20517;-52
2021/12/06 02:32:35;;;;;;;13.88;9.93;;;;;;;;;;4995777;28;20642;-51
2021/12/06 02:35:03;;;;;;;15.73;9.70;;;;;;;;;;4995786;28;20288;-51
2021/12/06 02:37:31;;;;;;;15.70;10.05;;;;;;;;;;4995802;28;20625;-51
2021/12/06 02:39:58;;;;;;;16.98;12.05;;;;;;;;;;4995539;28;20520;-50
2021/12/06 02:42:25;;;;;;;36.50;11.63;;;;;;;;;;4995707;28;20664;-51
2021/12/06 02:44:51;;;;;;;17.15;11.18;;;;;;;;;;4995718;28;20177;-51
2021/12/06 02:47:18;;;;;;;31.92;12.45;;;;;;;;;;4995586;28;20208;-51
2021/12/06 02:49:44;;;;;;;23.10;11.30;;;;;;;;;;4995578;28;20173;-51
2021/12/06 02:52:11;;;;;;;13.82;10.13;;;;;;;;;;4995418;28;20175;-51
2021/12/06 02:54:38;;;;;;;34.80;13.20;;;;;;;;;;4995463;28;20625;-51
2021/12/06 02:57:20;;;;;;;19.67;11.55;;;;;;;;;;4995453;28;20232;-51
2021/12/06 02:59:47;;;;;;;18.00;13.35;;;;;;;;;;4995187;28;20165;-51
2021/12/06 03:02:15;;;;;;;14.23;8.90;;;;;;;;;;4995206;28;20584;-50
2021/12/06 03:04:42;;;;;;;13.73;9.50;;;;;;;;;;4995525;28;20553;-53
2021/12/06 03:07:10;;;;;;;20.85;13.00;;;;;;;;;;4995499;28;20515;-51
2021/12/06 03:09:38;;;;;;;35.05;12.00;;;;;;;;;;4995160;28;20635;-51
2021/12/06 03:12:10;;;;;;;19.25;9.95;;;;;;;;;;4994881;28;20212;-53
2021/12/06 03:14:38;;;;;;;44.30;12.35;;;;;;;;;;4995212;28;20742;-51
2021/12/06 03:17:05;;;;;;;17.13;9.57;;;;;;;;;;4995085;28;20161;-51
2021/12/06 03:19:32;;;;;;;13.35;9.88;;;;;;;;;;4995071;28;20166;-51
2021/12/06 03:21:58;;;;;;;21.02;10.80;;;;;;;;;;4994653;28;20629;-51
2021/12/06 03:24:24;;;;;;;14.75;9.70;;;;;;;;;;4994967;28;20185;-51
2021/12/06 03:26:50;;;;;;;23.70;12.10;;;;;;;;;;4994835;28;20542;-51
2021/12/06 03:29:17;;;;;;;28.05;14.63;;;;;;;;;;4994852;28;20436;-50
2021/12/06 03:31:43;;;;;;;39.95;15.82;;;;;;;;;;4994669;28;20189;-51
2021/12/06 03:34:09;;;;;;;35.13;16.80;;;;;;;;;;4994668;28;20624;-50
2021/12/06 03:36:37;;;;;;;32.63;14.05;;;;;;;;;;4994432;28;20527;-53
2021/12/06 03:39:04;;;;;;;30.00;14.88;;;;;;;;;;4994701;28;20169;-51
2021/12/06 03:41:30;;;;;;;24.75;12.65;;;;;;;;;;4994316;28;20165;-51
2021/12/06 03:43:57;;;;;;;34.53;14.20;;;;;;;;;;4994504;28;20276;-51
2021/12/06 03:46:24;;;;;;;19.88;13.35;;;;;;;;;;4993311;28;20188;-51
2021/12/06 03:48:50;;;;;;;21.42;13.90;;;;;;;;;;4994519;28;20196;-51
2021/12/06 03:51:17;;;;;;;29.67;13.90;;;;;;;;;;4994163;28;20637;-51
2021/12/06 03:53:43;;;;;;;18.48;12.75;;;;;;;;;;4994274;28;20595;-51
2021/12/06 03:56:09;;;;;;;35.13;13.23;;;;;;;;;;4994404;28;20260;-51
2021/12/06 03:58:36;;;;;;;35.58;12.85;;;;;;;;;;4994382;28;20201;-51
2021/12/06 04:01:02;;;;;;;51.13;13.75;;;;;;;;;;4993985;28;20168;-51
2021/12/06 04:03:29;;;;;;;48.75;14.32;;;;;;;;;;4992884;28;20577;-51
2021/12/06 04:05:55;;;;;;;41.58;13.25;;;;;;;;;;4994121;28;20176;-53
2021/12/06 04:08:22;;;;;;;49.28;12.88;;;;;;;;;;4994159;28;20256;-51
2021/12/06 04:10:48;;;;;;;52.33;12.00;;;;;;;;;;4993832;28;20185;-51
2021/12/06 04:13:16;;;;;;;24.35;10.45;;;;;;;;;;4993982;28;20189;-51
2021/12/06 04:15:44;;;;;;;46.33;11.77;;;;;;;;;;4993964;28;20733;-51
2021/12/06 04:18:10;;;;;;;27.50;12.13;;;;;;;;;;4993945;28;20207;-53
2021/12/06 04:20:36;;;;;;;25.30;11.63;;;;;;;;;;4993652;28;20578;-50
2021/12/06 04:23:03;;;;;;;39.72;11.90;;;;;;;;;;4993590;28;20464;-51
2021/12/06 04:25:29;;;;;;;25.05;11.77;;;;;;;;;;4993876;28;20178;-51
2021/12/06 04:27:59;;;;;;;22.90;12.88;;;;;;;;;;4993789;28;20176;-51
2021/12/06 04:30:26;;;;;;;28.63;12.15;;;;;;;;;;4993468;28;20636;-51
2021/12/06 04:32:53;;;;;;;18.25;10.43;;;;;;;;;;4993597;28;20199;-51
2021/12/06 04:35:19;;;;;;;18.75;11.02;;;;;;;;;;4993537;28;20201;-53
2021/12/06 04:37:45;;;;;;;28.83;13.38;;;;;;;;;;4993502;28;20165;-51
2021/12/06 04:40:12;;;;;;;26.07;11.23;;;;;;;;;;4993273;28;20219;-52
2021/12/06 04:42:39;;;;;;;47.38;12.88;;;;;;;;;;4993426;28;20424;-51
2021/12/06 04:45:05;;;;;;;36.70;12.40;;;;;;;;;;4993522;28;20177;-51
2021/12/06 04:47:31;;;;;;;45.38;12.50;;;;;;;;;;4993442;28;20184;-51
2021/12/06 04:49:57;;;;;;;38.20;14.05;;;;;;;;;;4992360;28;20212;-50
2021/12/06 04:52:24;;;;;;;38.78;13.25;;;;;;;;;;4993140;28;20225;-50
2021/12/06 04:54:52;;;;;;;27.20;14.18;;;;;;;;;;4993414;28;20212;-50
2021/12/06 04:57:47;;;;;;;54.55;12.88;;;;;;;;;;4993419;28;20218;-51
2021/12/06 05:00:13;;;;;;;24.42;12.27;;;;;;;;;;4988260;28;20655;-51
2021/12/06 05:02:40;;;;;;;29.05;11.90;;;;;;;;;;4992955;28;20687;-51
2021/12/06 05:05:08;;;;;;;22.42;13.32;;;;;;;;;;4993305;28;20177;-51
2021/12/06 05:07:36;;;;;;;29.48;13.25;;;;;;;;;;4993119;28;20247;-51
2021/12/06 05:10:05;;;;;;;24.85;12.15;;;;;;;;;;4992740;28;20260;-51
2021/12/06 05:12:31;;;;;;;23.35;13.10;;;;;;;;;;4992998;28;20213;-51
2021/12/06 05:14:58;;;;;;;34.40;12.40;;;;;;;;;;4992903;28;20280;-52
2021/12/06 05:17:24;;;;;;;21.42;12.77;;;;;;;;;;4992762;28;20404;-51
2021/12/06 05:19:50;;;;;;;25.23;12.57;;;;;;;;;;4992716;28;20169;-53
2021/12/06 05:22:16;;;;;;;25.23;13.88;;;;;;;;;;4992497;28;20978;-51
2021/12/06 05:24:43;;;;;;;14.00;11.05;;;;;;;;;;4992884;28;20176;-51
2021/12/06 05:27:09;;;;;;;19.42;11.75;;;;;;;;;;4992771;28;20169;-51
2021/12/06 05:29:35;;;;;;;27.02;14.45;;;;;;;;;;4992618;28;20179;-51
2021/12/06 05:32:01;;;;;;;23.38;13.73;;;;;;;;;;4992388;28;20180;-51
2021/12/06 05:34:38;;;;;;;25.33;14.07;;;;;;;;;;4992673;28;20197;-51
2021/12/06 05:37:05;;;;;;;26.80;14.32;;;;;;;;;;4992670;28;20198;-51
2021/12/06 05:39:31;;;;;;;40.22;14.93;;;;;;;;;;4992575;28;20648;-53
2021/12/06 05:42:01;;;;;;;34.37;14.40;;;;;;;;;;4992323;28;20176;-50
2021/12/06 05:44:28;;;;;;;39.00;16.60;;;;;;;;;;4992474;28;20810;-51
2021/12/06 05:46:54;;;;;;;21.75;13.10;;;;;;;;;;4992493;28;20177;-51
2021/12/06 05:49:20;;;;;;;41.33;14.80;;;;;;;;;;4992727;28;20308;-51
2021/12/06 05:51:46;;;;;;;42.83;14.07;;;;;;;;;;4992541;28;20255;-51
2021/12/06 05:54:12;;;;;;;25.00;13.53;;;;;;;;;;4992189;28;20452;-52
2021/12/06 05:56:38;;;;;;;41.03;15.20;;;;;;;;;;4992384;28;20396;-53
2021/12/06 05:59:04;;;;;;;18.57;10.77;;;;;;;;;;4992272;28;20994;-51
2021/12/06 06:01:30;;;;;;;33.45;14.25;;;;;;;;;;4995417;28;20403;-51
2021/12/06 06:04:01;;;;;;;52.05;16.13;;;;;;;;;;4996344;28;20185;-51
2021/12/06 06:06:31;;;;;;;27.15;16.42;;;;;;;;;;4996405;28;20172;-51
2021/12/06 06:08:57;;;;;;;28.98;16.50;;;;;;;;;;4996403;28;20180;-53
2021/12/06 06:11:23;;;;;;;52.45;17.23;;;;;;;;;;4995979;28;20177;-53
2021/12/06 06:13:49;;;;;;;45.40;15.73;;;;;;;;;;4996358;28;20216;-53
2021/12/06 06:16:18;;;;;;;48.92;16.83;;;;;;;;;;4996141;28;20236;-53
2021/12/06 06:18:45;;;;;;;72.32;17.70;;;;;;;;;;4996214;28;20165;-51
2021/12/06 06:21:11;;;;;;;103.55;20.90;;;;;;;;;;4995853;28;20171;-51
2021/12/06 06:23:37;;;;;;;73.47;17.17;;;;;;;;;;4993220;28;20251;-51
2021/12/06 06:26:03;;;;;;;41.45;16.60;;;;;;;;;;4995797;28;20276;-51
2021/12/06 06:28:29;;;;;;;92.78;17.35;;;;;;;;;;4996070;28;20196;-50
2021/12/06 06:30:55;;;;;;;112.87;20.97;;;;;;;;;;4994288;28;20208;-50
2021/12/06 06:33:21;;;;;;;62.20;17.40;;;;;;;;;;4995822;28;20420;-51
2021/12/06 06:35:47;;;;;;;57.27;15.90;;;;;;;;;;4995794;28;20203;-50
2021/12/06 06:38:13;;;;;;;86.38;17.48;;;;;;;;;;4995864;28;20438;-51
2021/12/06 06:40:39;;;;;;;34.47;17.40;;;;;;;;;;4995351;28;20165;-51
2021/12/06 06:43:06;;;;;;;49.28;16.10;;;;;;;;;;4995601;28;20260;-51
2021/12/06 06:45:32;;;;;;;63.22;16.00;;;;;;;;;;4995671;28;20169;-50
2021/12/06 06:47:58;;;;;;;68.63;18.77;;;;;;;;;;4995942;28;20165;-51
2021/12/06 06:50:24;;;;;;;33.55;17.45;;;;;;;;;;4995280;28;20169;-53
2021/12/06 06:52:50;;;;;;;71.28;19.20;;;;;;;;;;4995527;28;20227;-54
2021/12/06 06:55:17;;;;;;;129.60;22.17;;;;;;;;;;4995237;28;20194;-53
2021/12/06 06:57:44;;;;;;;74.38;19.45;;;;;;;;;;4994152;28;20648;-53
2021/12/06 07:00:12;;;;;;;95.40;21.70;;;;;;;;;;4995063;28;20169;-53
2021/12/06 07:02:39;;;;;;;63.00;20.88;;;;;;;;;;4995189;28;20189;-54
2021/12/06 07:05:06;;;;;;;72.05;18.98;;;;;;;;;;4995320;28;20215;-53
2021/12/06 07:07:32;;;;;;;83.85;18.70;;;;;;;;;;4995311;28;20170;-55
2021/12/06 07:09:58;;;;;;;78.75;18.48;;;;;;;;;;4993749;28;20656;-54
2021/12/06 07:12:24;;;;;;;155.90;20.67;;;;;;;;;;4994380;28;20189;-53
2021/12/06 07:14:50;;;;;;;80.22;18.60;;;;;;;;;;4994769;28;20251;-53
2021/12/06 07:17:16;;;;;;;128.00;18.75;;;;;;;;;;4993433;28;20165;-53
2021/12/06 07:19:43;;;;;;;111.47;18.73;;;;;;;;;;4993626;28;20575;-53
2021/12/06 07:22:10;;;;;;;65.50;15.63;;;;;;;;;;4994684;28;20192;-53
2021/12/06 07:24:36;;;;;;;92.07;18.33;;;;;;;;;;4994966;28;20165;-53
2021/12/06 07:27:02;;;;;;;59.88;15.60;;;;;;;;;;4995165;28;20195;-54
2021/12/06 07:29:32;;;;;;;46.10;16.02;;;;;;;;;;4994869;28;20231;-53
2021/12/06 07:31:58;;;;;;;31.70;13.43;;;;;;;;;;4994568;28;20165;-54
2021/12/06 07:34:24;;;;;;;27.03;12.83;;;;;;;;;;4994742;28;20204;-53
2021/12/06 07:36:50;;;;;;;16.07;11.17;;;;;;;;;;4994673;28;20473;-53
2021/12/06 07:39:16;;;;;;;24.17;13.00;;;;;;;;;;4994713;28;20892;-54
2021/12/06 07:41:42;;;;;;;22.88;12.95;;;;;;;;;;4994541;28;20419;-53
2021/12/06 07:44:09;;;;;;;25.25;13.85;;;;;;;;;;4994533;28;20197;-53
2021/12/06 07:46:35;;;;;;;26.20;13.85;;;;;;;;;;4994498;28;20166;-53
2021/12/06 07:49:01;;;;;;;26.55;13.63;;;;;;;;;;4994516;28;20223;-54
2021/12/06 07:51:28;;;;;;;25.33;13.20;;;;;;;;;;4994089;28;20173;-54
2021/12/06 07:53:55;;;;;;;30.20;14.50;;;;;;;;;;4994326;28;20543;-53
2021/12/06 07:56:21;;;;;;;20.13;15.48;;;;;;;;;;4994333;28;20636;-54
2021/12/06 07:58:48;;;;;;;67.25;19.23;;;;;;;;;;4994260;28;20161;-53
2021/12/06 08:01:14;;;;;;;35.67;17.85;;;;;;;;;;4993991;28;20193;-53
2021/12/06 08:03:41;;;;;;;46.67;17.92;;;;;;;;;;4994077;28;20192;-54
2021/12/06 08:06:08;;;;;;;52.90;16.20;;;;;;;;;;4993994;28;20165;-54
2021/12/06 08:08:35;;;;;;;35.13;17.20;;;;;;;;;;4994058;28;20176;-54
2021/12/06 08:11:04;;;;;;;55.00;19.60;;;;;;;;;;4993869;28;20172;-53
2021/12/06 08:13:31;;;;;;;55.33;18.02;;;;;;;;;;4993865;28;20184;-54
2021/12/06 08:15:58;;;;;;;51.70;19.55;;;;;;;;;;4994032;28;20579;-53
2021/12/06 08:18:25;;;;;;;55.58;19.45;;;;;;;;;;4993942;28;20208;-54
2021/12/06 08:20:51;;;;;;;52.00;19.67;;;;;;;;;;4993589;28;20184;-53
2021/12/06 08:23:17;;;;;;;42.95;17.02;;;;;;;;;;4993638;28;20295;-51
2021/12/06 08:25:46;;;;;;;42.38;17.20;;;;;;;;;;4993523;28;20236;-53
2021/12/06 08:28:12;;;;;;;93.93;22.35;;;;;;;;;;4993712;28;20535;-52
2021/12/06 08:30:38;;;;;;;54.00;19.25;;;;;;;;;;4993430;28;20227;-51
2021/12/06 08:33:05;;;;;;;121.90;23.98;;;;;;;;;;4993536;28;20239;-51
2021/12/06 08:35:31;;;;;;;46.55;18.23;;;;;;;;;;4993505;28;20202;-51
2021/12/06 08:37:59;;;;;;;30.85;17.38;;;;;;;;;;4993619;28;20224;-51
2021/12/06 08:40:25;;;;;;;60.35;19.50;;;;;;;;;;4993267;28;20625;-51
2021/12/06 08:42:51;;;;;;;33.88;18.15;;;;;;;;;;4993395;28;20261;-51
2021/12/06 08:45:17;;;;;;;66.95;19.42;;;;;;;;;;4992875;28;20271;-51
2021/12/06 08:47:44;;;;;;;49.25;20.08;;;;;;;;;;4993335;28;20177;-51
2021/12/06 08:50:14;;;;;;;79.03;20.38;;;;;;;;;;4992788;28;20633;-51
2021/12/06 08:52:40;;;;;;;38.25;18.63;;;;;;;;;;4993322;28;20236;-51
2021/12/06 08:55:08;;;;;;;38.63;18.02;;;;;;;;;;4992110;28;20200;-51
2021/12/06 08:57:34;;;;;;;42.78;18.50;;;;;;;;;;4990238;28;20210;-51
2021/12/06 09:00:00;;;;;;;62.90;19.95;;;;;;;;;;4992839;28;20621;-51
2021/12/06 09:02:26;;;;;;;58.67;20.10;;;;;;;;;;4992910;28;20564;-51
2021/12/06 09:04:52;;;;;;;51.07;21.33;;;;;;;;;;4993149;28;20183;-51
2021/12/06 09:07:19;;;;;;;45.27;17.90;;;;;;;;;;4993082;28;20431;-53
2021/12/06 09:09:49;;;;;;;69.55;19.00;;;;;;;;;;4992827;28;20490;-52
2021/12/06 09:12:20;;;;;;;31.35;16.50;;;;;;;;;;4992815;28;20547;-51
2021/12/06 09:14:46;;;;;;;53.05;19.02;;;;;;;;;;4993683;28;20197;-51
2021/12/06 09:17:13;;;;;;;41.55;16.23;;;;;;;;;;4992892;28;20170;-51
2021/12/06 09:19:39;;;;;;;64.40;17.27;;;;;;;;;;4992737;28;20177;-51
2021/12/06 09:22:05;;;;;;;53.23;16.90;;;;;;;;;;4992406;28;20165;-52
2021/12/06 09:24:31;;;;;;;26.65;14.55;;;;;;;;;;4992713;28;20447;-51
2021/12/06 09:26:58;;;;;;;59.30;15.63;;;;;;;;;;4992933;28;20229;-52
2021/12/06 09:29:24;;;;;;;48.70;16.05;;;;;;;;;;4993622;28;20656;-53
2021/12/06 09:31:52;;;;;;;20.90;13.90;;;;;;;;;;4992311;28;20173;-53
2021/12/06 09:34:18;;;;;;;49.78;14.57;;;;;;;;;;5000711;28;20200;-53
2021/12/06 09:36:44;;;;;;;34.28;15.10;;;;;;;;;;4990047;28;20215;-55
2021/12/06 09:39:11;;;;;;;109.88;18.50;;;;;;;;;;4984303;28;20177;-53
2021/12/06 09:41:37;;;;;;;48.55;15.30;;;;;;;;;;4992747;28;20235;-51
2021/12/06 09:44:05;;;;;;;52.42;13.93;;;;;;;;;;4992775;28;20284;-53
2021/12/06 09:46:35;;;;;;;18.60;11.77;;;;;;;;;;4988594;28;20200;-54
2021/12/06 09:49:04;;;;;;;49.60;14.25;;;;;;;;;;4989345;28;20173;-52
2021/12/06 09:51:30;;;;;;;32.70;13.65;;;;;;;;;;4992109;28;20187;-51
2021/12/06 09:53:58;;;;;;;41.78;14.05;;;;;;;;;;4990935;28;20201;-52
2021/12/06 09:56:25;;;;;;;29.13;14.27;;;;;;;;;;4991007;28;20173;-52
2021/12/06 09:58:52;;;;;;;42.63;14.55;;;;;;;;;;4992638;28;20172;-51
2021/12/06 10:01:22;;;;;;;55.85;14.38;;;;;;;;;;4991764;28;20165;-51
2021/12/06 10:03:50;;;;;;;41.00;14.38;;;;;;;;;;4992538;28;20196;-51
2021/12/06 10:06:19;;;;;;;53.08;15.05;;;;;;;;;;4992267;28;20219;-51
2021/12/06 10:08:49;;;;;;;41.38;15.90;;;;;;;;;;4992197;28;20161;-51
2021/12/06 10:11:16;;;;;;;32.15;12.50;;;;;;;;;;4991747;28;20199;-54
2021/12/06 10:13:42;;;;;;;40.72;14.43;;;;;;;;;;4992382;28;20329;-51
2021/12/06 10:16:08;;;;;;;29.90;14.63;;;;;;;;;;4992113;28;20165;-51
2021/12/06 10:18:34;;;;;;;40.88;14.45;;;;;;;;;;4992129;28;20169;-51
2021/12/06 10:21:01;;;;;;;45.47;13.60;;;;;;;;;;4991798;28;20648;-52
2021/12/06 10:23:28;;;;;;;25.73;11.65;;;;;;;;;;4991682;28;20451;-51
2021/12/06 10:25:55;;;;;;;23.00;13.13;;;;;;;;;;4989905;28;20188;-52
2021/12/06 10:28:23;;;;;;;19.67;11.70;;;;;;;;;;4991973;28;20645;-51
2021/12/06 10:30:54;;;;;;;34.90;12.90;;;;;;;;;;4991943;28;20161;-51
2021/12/06 10:33:21;;;;;;;46.30;11.55;;;;;;;;;;4991773;28;20197;-53
2021/12/06 10:35:49;;;;;;;24.73;11.63;;;;;;;;;;4991926;28;20251;-51
2021/12/06 10:38:21;;;;;;;21.20;10.85;;;;;;;;;;4991726;28;20518;-52
2021/12/06 10:40:47;;;;;;;17.38;10.30;;;;;;;;;;4991679;28;20178;-52
2021/12/06 10:43:13;;;;;;;19.27;10.85;;;;;;;;;;4991803;28;20220;-51
2021/12/06 10:45:42;;;;;;;18.38;11.40;;;;;;;;;;4991939;28;20180;-52
2021/12/06 10:48:08;;;;;;;17.52;10.40;;;;;;;;;;4994239;28;20180;-52
2021/12/06 10:50:34;;;;;;;18.77;9.60;;;;;;;;;;4995139;28;20177;-51
2021/12/06 10:53:00;;;;;;;14.50;10.03;;;;;;;;;;4995310;28;20893;-52
2021/12/06 10:55:29;;;;;;;15.15;10.60;;;;;;;;;;4995297;28;20459;-52
2021/12/06 10:57:56;;;;;;;22.00;11.02;;;;;;;;;;4995238;28;20172;-52
2021/12/06 11:00:35;;;;;;;34.42;11.10;;;;;;;;;;4994985;28;20625;-52
2021/12/06 11:03:01;;;;;;;23.40;10.53;;;;;;;;;;4995651;28;20321;-52
2021/12/06 11:05:28;;;;;;;15.13;10.87;;;;;;;;;;4995025;28;20828;-52
2021/12/06 11:08:14;;;;;;;15.57;12.13;;;;;;;;;;4995184;28;20413;-52
2021/12/06 11:10:45;;;;;;;23.80;12.63;;;;;;;;;;4994852;28;20547;-51
2021/12/06 11:13:17;;;;;;;22.20;13.80;;;;;;;;;;4995049;28;20225;-51
2021/12/06 11:15:57;;;;;;;20.98;13.35;;;;;;;;;;4994768;28;20608;-51
2021/12/06 11:18:37;;;;;;;22.02;14.35;;;;;;;;;;4994989;28;20173;-52
2021/12/06 11:21:04;;;;;;;18.67;12.32;;;;;;;;;;4994904;28;20225;-51
2021/12/06 11:23:30;;;;;;;16.23;12.13;;;;;;;;;;4994571;28;20198;-52
2021/12/06 11:26:01;;;;;;;20.02;13.70;;;;;;;;;;4994685;28;20173;-53
2021/12/06 11:28:29;;;;;;;20.30;12.43;;;;;;;;;;4994764;28;20166;-52
2021/12/06 11:31:03;;;;;;;21.90;12.60;;;;;;;;;;4994416;28;20425;-52
2021/12/06 11:33:30;;;;;;;18.73;12.00;;;;;;;;;;4994459;28;20475;-52
2021/12/06 11:35:56;;;;;;;16.33;11.30;;;;;;;;;;4994604;28;20466;-51
2021/12/06 11:38:22;;;;;;;39.33;11.60;;;;;;;;;;4994518;28;20815;-52
2021/12/06 11:40:49;;;;;;;19.13;10.50;;;;;;;;;;4994166;28;20452;-52
2021/12/06 11:43:17;;;;;;;17.83;10.80;;;;;;;;;;4994297;28;20928;-52
2021/12/06 11:45:50;;;;;;;15.87;11.53;;;;;;;;;;4994489;28;20433;-52
2021/12/06 11:48:18;;;;;;;17.23;11.00;;;;;;;;;;4994365;28;20456;-52
2021/12/06 11:50:44;;;;;;;17.07;10.30;;;;;;;;;;4994098;28;20438;-54
2021/12/06 11:53:10;;;;;;;13.03;11.00;;;;;;;;;;4994139;28;20866;-52
2021/12/06 11:55:37;;;;;;;43.97;10.87;;;;;;;;;;4994119;28;20856;-52
2021/12/06 11:58:03;;;;;;;14.20;11.13;;;;;;;;;;4994088;28;20811;-51
2021/12/06 12:00:30;;;;;;;13.87;10.97;;;;;;;;;;4993739;28;20495;-52
2021/12/06 12:02:57;;;;;;;21.97;12.20;;;;;;;;;;4994052;28;20459;-52
2021/12/06 12:05:37;;;;;;;16.70;12.60;;;;;;;;;;4993953;28;20421;-52
2021/12/06 12:08:09;;;;;;;16.53;11.40;;;;;;;;;;4994010;28;20412;-54
2021/12/06 12:10:37;;;;;;;19.27;12.40;;;;;;;;;;4993740;28;20519;-52
2021/12/06 12:13:04;;;;;;;19.13;13.53;;;;;;;;;;4993905;28;20428;-52
2021/12/06 12:15:30;;;;;;;15.47;12.43;;;;;;;;;;4993750;28;20947;-53
2021/12/06 12:17:56;;;;;;;17.83;12.93;;;;;;;;;;4993798;28;20435;-53
2021/12/06 12:20:23;;;;;;;13.77;11.40;;;;;;;;;;4989237;28;20424;-52
2021/12/06 12:22:51;;;;;;;12.30;10.80;;;;;;;;;;4991445;28;20490;-52
2021/12/06 12:25:55;;;;;;;16.43;12.57;;;;;;;;;;4993696;28;20942;-52
2021/12/06 12:30:39;;;;;;;14.80;11.97;;;;;;;;;;4993255;28;20479;-52
2021/12/06 12:33:07;;;;;;;16.23;11.80;;;;;;;;;;4993533;28;20416;-53
2021/12/06 12:35:33;;;;;;;14.50;11.47;;;;;;;;;;4992296;28;20459;-52
2021/12/06 12:38:00;;;;;;;16.20;11.00;;;;;;;;;;4993505;28;20483;-51
2021/12/06 12:40:29;;;;;;;14.20;10.10;;;;;;;;;;4993181;28;20409;-52
2021/12/06 12:43:04;;;;;;;11.90;10.40;;;;;;;;;;4996872;28;20519;-54
2021/12/06 12:45:37;;;;;;;15.83;11.20;;;;;;;;;;4996601;28;20482;-54
2021/12/06 12:48:03;;;;;;;17.17;12.07;;;;;;;;;;4996836;28;20407;-54
2021/12/06 12:50:30;;;;;;;14.47;11.60;;;;;;;;;;4996435;28;20443;-54
2021/12/06 12:52:59;;;;;;;12.87;10.70;;;;;;;;;;4996581;28;20423;-54
2021/12/06 12:55:25;;;;;;;12.10;9.60;;;;;;;;;;4995283;28;20498;-54
2021/12/06 12:58:04;;;;;;;11.70;9.60;;;;;;;;;;4996405;28;20404;-54
2021/12/06 13:00:31;;;;;;;10.63;9.57;;;;;;;;;;4995568;28;20411;-54
2021/12/06 13:02:58;;;;;;;13.50;9.10;;;;;;;;;;4996254;28;20465;-54
2021/12/06 13:05:29;;;;;;;15.20;10.20;;;;;;;;;;4995355;28;20415;-54
2021/12/06 13:08:00;;;;;;;13.53;10.57;;;;;;;;;;4994083;28;20458;-54
2021/12/06 13:10:34;;;;;;;13.53;10.00;;;;;;;;;;4993796;28;20467;-55
2021/12/06 13:13:09;;;;;;;18.57;11.30;;;;;;;;;;4995263;28;20435;-54
2021/12/06 13:16:23;;;;;;;14.93;11.07;;;;;;;;;;4994558;28;20501;-54
2021/12/06 13:18:47;;;;;;;16.50;11.53;;;;;;;;;;4992829;28;20479;-56
2021/12/06 13:21:36;;;;;;;12.80;10.20;;;;;;;;;;4993840;28;20400;-54
2021/12/06 13:24:23;;;;;;;13.57;10.60;;;;;;;;;;4993751;28;20456;-55
2021/12/06 13:26:50;;;;;;;14.87;9.47;;;;;;;;;;4994909;28;20411;-55
2021/12/06 13:29:27;;;;;;;14.43;11.10;;;;;;;;;;4995088;28;20437;-55
2021/12/06 13:31:53;;;;;;;13.27;10.70;;;;;;;;;;4995321;28;20416;-55
2021/12/06 13:34:19;;;;;;;11.50;9.40;;;;;;;;;;4995493;28;20488;-55
2021/12/06 13:36:48;;;;;;;11.20;8.80;;;;;;;;;;4995297;28;20457;-55
2021/12/06 13:39:30;;;;;;;13.10;8.67;;;;;;;;;;4994722;28;20407;-55
2021/12/06 13:41:57;;;;;;;10.80;7.70;;;;;;;;;;4993549;28;20408;-55
2021/12/06 13:44:37;;;;;;;8.60;7.63;;;;;;;;;;4994031;28;20409;-55
2021/12/06 13:47:15;;;;;;;5.67;5.07;;;;;;;;;;4994067;28;20397;-55
2021/12/06 13:49:52;;;;;;;9.17;6.70;;;;;;;;;;4992632;28;20439;-55
2021/12/06 13:52:29;;;;;;;10.70;6.20;;;;;;;;;;4993510;28;20456;-55
2021/12/06 13:54:55;;;;;;;6.20;5.60;;;;;;;;;;4991347;28;20465;-55
2021/12/06 13:57:21;;;;;;;6.23;5.10;;;;;;;;;;4991120;28;20402;-52
2021/12/06 13:59:55;;;;;;;7.27;6.30;;;;;;;;;;4991160;28;20408;-54
2021/12/06 14:02:25;;;;;;;7.93;7.03;;;;;;;;;;4992029;28;20424;-52
2021/12/06 14:04:51;;;;;;;9.20;6.60;;;;;;;;;;4991737;28;20919;-53
2021/12/06 14:07:22;;;;;;;6.70;5.10;;;;;;;;;;4992469;28;20930;-52
2021/12/06 14:09:49;;;;;;;6.90;5.10;;;;;;;;;;4992168;28;20415;-53
2021/12/06 14:12:16;;;;;;;6.20;4.80;;;;;;;;;;4990876;28;20469;-53
2021/12/06 14:14:42;;;;;;;7.37;5.40;;;;;;;;;;4991606;28;20464;-53
2021/12/06 14:17:10;;;;;;;7.10;4.80;;;;;;;;;;4992267;28;20887;-53
2021/12/06 14:19:35;;;;;;;8.50;5.13;;;;;;;;;;4990832;28;20404;-52
2021/12/06 14:22:02;;;;;;;6.60;5.10;;;;;;;;;;4993298;28;20399;-52
2021/12/06 14:24:29;;;;;;;10.70;4.80;;;;;;;;;;4994663;28;20418;-54
2021/12/06 14:26:55;;;;;;;6.33;5.50;;;;;;;;;;4991240;28;20413;-52
2021/12/06 14:29:25;;;;;;;10.27;5.00;;;;;;;;;;4995489;28;20505;-52
2021/12/06 14:31:51;;;;;;;5.00;4.50;;;;;;;;;;4993571;28;20423;-52
2021/12/06 14:34:18;;;;;;;7.20;4.87;;;;;;;;;;4995260;28;21027;-54
2021/12/06 14:36:45;;;;;;;5.60;5.00;;;;;;;;;;4994398;28;20468;-52
2021/12/06 14:39:13;;;;;;;26.77;17.00;;;;;;;;;;4993633;28;20919;-53
2021/12/06 14:42:01;;;;;;;55.80;33.10;;;;;;;;;;4994597;28;20397;-53
2021/12/06 14:44:36;;;;;;;43.10;24.27;;;;;;;;;;4993346;28;20436;-53
2021/12/06 14:47:03;;;;;;;26.80;19.20;;;;;;;;;;4995606;28;20435;-52